createdAt,value
2017-06-04T00:00:24.546Z,0
2017-06-04T00:01:13.305Z,0
2017-06-04T00:02:02.934Z,0
2017-06-04T00:02:51.898Z,0
2017-06-04T00:03:41.418Z,0
2017-06-04T00:04:29.735Z,0
2017-06-04T00:05:20.373Z,0
2017-06-04T00:06:10.670Z,0
2017-06-04T00:07:01.628Z,0
2017-06-04T00:07:48.873Z,0
2017-06-04T00:08:38.320Z,0
2017-06-04T00:09:27.720Z,0
2017-06-04T00:10:17.847Z,0
2017-06-04T00:11:07.163Z,0
2017-06-04T00:11:55.463Z,0
2017-06-04T00:12:44.899Z,0
2017-06-04T00:13:33.664Z,0
2017-06-04T00:14:22.753Z,0
2017-06-04T00:15:11.808Z,0
2017-06-04T00:16:00.834Z,0
2017-06-04T00:16:50.294Z,0
2017-06-04T00:17:39.109Z,0
2017-06-04T00:18:28.094Z,0
2017-06-04T00:19:17.034Z,0
2017-06-04T00:20:06.867Z,0
2017-06-04T00:20:55.280Z,0
2017-06-04T00:21:44.854Z,0
2017-06-04T00:22:35.825Z,0
2017-06-04T00:23:25.808Z,0
2017-06-04T00:24:14.692Z,0
2017-06-04T00:25:05.539Z,0
2017-06-04T00:25:56.039Z,0
2017-06-04T00:26:45.829Z,0
2017-06-04T00:27:35.167Z,0
2017-06-04T00:28:26.827Z,0
2017-06-04T00:29:16.775Z,0
2017-06-04T00:30:05.902Z,0
2017-06-04T00:30:56.255Z,0
2017-06-04T00:31:46.121Z,0
2017-06-04T00:32:35.520Z,0
2017-06-04T00:33:23.887Z,0
2017-06-04T00:34:13.312Z,0
2017-06-04T00:35:04.757Z,0
2017-06-04T00:35:56.266Z,0
2017-06-04T00:36:46.272Z,0
2017-06-04T00:37:34.465Z,0
2017-06-04T00:38:22.718Z,0
2017-06-04T00:39:11.666Z,0
2017-06-04T00:41:38.395Z,0
2017-06-04T00:42:27.076Z,0
2017-06-04T00:43:16.128Z,0
2017-06-04T00:44:11.577Z,0
2017-06-04T00:45:00.056Z,0
2017-06-04T00:45:52.234Z,0
2017-06-04T00:46:40.139Z,0
2017-06-04T00:49:27.742Z,0
2017-06-04T00:57:42.130Z,0
2017-06-04T00:58:30.458Z,0
2017-06-04T00:59:20.095Z,0
2017-06-04T01:00:14.755Z,0
2017-06-04T01:02:26.947Z,0
2017-06-04T01:03:07.353Z,0
2017-06-04T01:03:47.740Z,0
2017-06-04T01:04:28.177Z,0
2017-06-04T01:05:09.534Z,0
2017-06-04T01:05:50.504Z,0
2017-06-04T01:06:30.923Z,0
2017-06-04T01:07:11.320Z,0
2017-06-04T01:07:51.792Z,0
2017-06-04T01:08:32.189Z,0
2017-06-04T01:09:12.591Z,0
2017-06-04T01:09:53.010Z,0
2017-06-04T01:10:33.454Z,0
2017-06-04T01:11:13.937Z,0
2017-06-04T01:11:54.352Z,0
2017-06-04T01:12:34.700Z,0
2017-06-04T01:13:15.101Z,0
2017-06-04T01:13:55.550Z,0
2017-06-04T01:14:36.339Z,0
2017-06-04T01:15:16.725Z,0
2017-06-04T01:15:57.147Z,0
2017-06-04T01:16:37.548Z,0
2017-06-04T01:17:17.995Z,0
2017-06-04T01:17:58.370Z,0
2017-06-04T01:18:38.765Z,0
2017-06-04T01:19:19.208Z,0
2017-06-04T01:19:59.626Z,0
2017-06-04T01:20:40.022Z,0
2017-06-04T01:21:20.437Z,0
2017-06-04T01:22:00.829Z,0
2017-06-04T01:22:41.211Z,0
2017-06-04T01:23:21.612Z,0
2017-06-04T01:24:02.023Z,0
2017-06-04T01:24:42.418Z,0
2017-06-04T01:25:22.847Z,0
2017-06-04T01:26:03.247Z,0
2017-06-04T01:26:43.665Z,0
2017-06-04T01:27:24.079Z,0
2017-06-04T01:28:04.514Z,0
2017-06-04T01:28:44.942Z,0
2017-06-04T01:29:25.375Z,0
2017-06-04T01:30:05.803Z,0
2017-06-04T01:30:46.171Z,0
2017-06-04T01:31:26.556Z,0
2017-06-04T01:32:06.973Z,0
2017-06-04T01:32:47.345Z,0
2017-06-04T01:33:27.766Z,0
2017-06-04T01:36:06.365Z,0
2017-06-04T01:36:50.477Z,0
2017-06-04T01:37:30.513Z,0
2017-06-04T01:38:10.880Z,0
2017-06-04T01:38:51.942Z,0
2017-06-04T01:39:32.579Z,0
2017-06-04T01:40:13.008Z,0
2017-06-04T01:40:53.455Z,0
2017-06-04T01:41:34.189Z,0
2017-06-04T01:42:14.463Z,0
2017-06-04T01:42:55.828Z,0
2017-06-04T01:43:36.243Z,0
2017-06-04T01:44:16.690Z,0
2017-06-04T01:44:58.049Z,0
2017-06-04T01:45:38.474Z,0
2017-06-04T01:46:19.766Z,0
2017-06-04T01:47:00.163Z,0
2017-06-04T01:47:43.108Z,0
2017-06-04T01:48:26.753Z,0
2017-06-04T01:49:07.143Z,0
2017-06-04T01:49:48.106Z,0
2017-06-04T01:50:29.811Z,0
2017-06-04T01:51:12.841Z,0
2017-06-04T01:51:54.823Z,0
2017-06-04T01:52:36.079Z,0
2017-06-04T01:53:16.488Z,0
2017-06-04T01:53:57.752Z,0
2017-06-04T01:54:38.134Z,0
2017-06-04T01:55:18.597Z,0
2017-06-04T01:55:59.047Z,0
2017-06-04T01:56:40.432Z,0
2017-06-04T01:57:20.812Z,0
2017-06-04T01:58:01.270Z,0
2017-06-04T01:58:41.641Z,0
2017-06-04T01:59:22.079Z,0
2017-06-04T02:00:04.043Z,0
2017-06-04T02:00:44.395Z,0
2017-06-04T02:01:24.888Z,0
2017-06-04T02:02:05.916Z,0
2017-06-04T02:02:47.264Z,0
2017-06-04T02:03:29.397Z,0
2017-06-04T02:04:09.916Z,0
2017-06-04T02:04:50.210Z,0
2017-06-04T02:05:31.651Z,0
2017-06-04T02:06:13.783Z,0
2017-06-04T02:06:54.809Z,0
2017-06-04T02:07:35.235Z,0
2017-06-04T02:08:16.774Z,0
2017-06-04T02:08:57.298Z,0
2017-06-04T02:09:37.706Z,0
2017-06-04T02:10:19.102Z,0
2017-06-04T02:10:59.516Z,0
2017-06-04T02:11:39.946Z,0
2017-06-04T02:12:22.908Z,0
2017-06-04T02:13:03.344Z,0
2017-06-04T02:13:43.850Z,0
2017-06-04T02:14:24.282Z,0
2017-06-04T02:15:04.718Z,0
2017-06-04T02:15:45.162Z,0
2017-06-04T02:16:25.584Z,0
2017-06-04T02:17:06.056Z,0
2017-06-04T02:17:46.545Z,0
2017-06-04T02:18:26.884Z,0
2017-06-04T02:19:07.266Z,0
2017-06-04T02:19:48.659Z,0
2017-06-04T02:20:29.620Z,0
2017-06-04T02:21:10.036Z,0
2017-06-04T02:21:51.128Z,0
2017-06-04T02:22:31.556Z,0
2017-06-04T02:23:12.810Z,0
2017-06-04T02:23:53.157Z,0
2017-06-04T02:24:34.459Z,0
2017-06-04T02:25:15.385Z,0
2017-06-04T02:25:57.564Z,0
2017-06-04T02:26:37.977Z,0
2017-06-04T02:27:18.391Z,0
2017-06-04T02:27:58.843Z,0
2017-06-04T02:28:39.408Z,0
2017-06-04T02:29:19.844Z,0
2017-06-04T02:30:00.757Z,0
2017-06-04T02:30:41.223Z,0
2017-06-04T02:31:22.163Z,0
2017-06-04T02:32:02.980Z,0
2017-06-04T02:32:43.442Z,0
2017-06-04T02:33:26.845Z,0
2017-06-04T02:34:07.277Z,0
2017-06-04T02:34:47.587Z,0
2017-06-04T02:35:28.007Z,0
2017-06-04T02:36:08.453Z,0
2017-06-04T02:36:50.421Z,0
2017-06-04T02:37:30.811Z,0
2017-06-04T02:38:11.372Z,0
2017-06-04T02:38:52.633Z,0
2017-06-04T02:39:32.922Z,0
2017-06-04T02:40:13.376Z,0
2017-06-04T02:40:53.799Z,0
2017-06-04T02:41:34.172Z,0
2017-06-04T02:42:18.269Z,0
2017-06-04T02:42:58.917Z,0
2017-06-04T02:43:41.954Z,0
2017-06-04T02:44:22.430Z,0
2017-06-04T02:45:03.377Z,0
2017-06-04T02:45:43.806Z,0
2017-06-04T02:46:24.167Z,0
2017-06-04T02:47:05.596Z,0
2017-06-04T02:47:46.065Z,0
2017-06-04T02:48:26.422Z,0
2017-06-04T02:49:07.427Z,0
2017-06-04T02:49:47.861Z,0
2017-06-04T02:50:29.888Z,0
2017-06-04T02:51:11.295Z,0
2017-06-04T02:51:51.723Z,0
2017-06-04T02:52:32.800Z,0
2017-06-04T02:53:15.800Z,0
2017-06-04T02:53:56.252Z,0
2017-06-04T02:54:37.495Z,4
2017-06-04T02:55:18.423Z,4
2017-06-04T02:55:58.817Z,4
2017-06-04T02:56:39.243Z,4
2017-06-04T02:57:19.630Z,4
2017-06-04T02:57:59.978Z,4
2017-06-04T02:58:42.350Z,4
2017-06-04T02:59:24.858Z,4
2017-06-04T03:00:05.358Z,4
2017-06-04T03:00:45.758Z,4
2017-06-04T03:01:26.223Z,8
2017-06-04T03:02:06.611Z,8
2017-06-04T03:02:47.008Z,8
2017-06-04T03:03:27.534Z,12
2017-06-04T03:04:07.906Z,12
2017-06-04T03:04:49.005Z,12
2017-06-04T03:07:13.285Z,12
2017-06-04T03:07:59.675Z,16
2017-06-04T03:08:40.058Z,16
2017-06-04T03:09:21.989Z,16
2017-06-04T03:10:02.364Z,16
2017-06-04T03:10:42.789Z,16
2017-06-04T03:11:23.170Z,16
2017-06-04T03:12:03.658Z,16
2017-06-04T03:12:45.420Z,16
2017-06-04T03:13:25.850Z,16
2017-06-04T03:14:06.238Z,16
2017-06-04T03:14:46.664Z,16
2017-06-04T03:15:27.166Z,16
2017-06-04T03:16:08.519Z,20
2017-06-04T03:16:49.903Z,24
2017-06-04T03:19:17.180Z,32
2017-06-04T03:20:05.653Z,32
2017-06-04T03:20:53.691Z,32
2017-06-04T03:21:42.432Z,24
2017-06-04T03:22:31.214Z,24
2017-06-04T03:23:20.199Z,28
2017-06-04T03:24:08.369Z,24
2017-06-04T03:24:57.238Z,28
2017-06-04T03:25:45.735Z,24
2017-06-04T03:26:30.199Z,24
2017-06-04T03:27:10.611Z,24
2017-06-04T03:27:50.947Z,24
2017-06-04T03:28:31.379Z,20
2017-06-04T03:29:12.725Z,24
2017-06-04T03:29:53.685Z,36
2017-06-04T03:30:34.073Z,44
2017-06-04T03:31:14.473Z,56
2017-06-04T03:31:54.784Z,68
2017-06-04T03:32:35.299Z,68
2017-06-04T03:35:10.411Z,104
2017-06-04T03:35:59.209Z,108
2017-06-04T03:36:48.119Z,108
2017-06-04T03:37:36.226Z,104
2017-06-04T03:38:24.952Z,108
2017-06-04T03:39:13.672Z,96
2017-06-04T03:40:02.546Z,80
2017-06-04T03:40:51.173Z,96
2017-06-04T03:41:39.291Z,88
2017-06-04T03:42:27.836Z,88
2017-06-04T03:43:16.713Z,88
2017-06-04T03:44:05.613Z,100
2017-06-04T03:44:53.791Z,116
2017-06-04T03:45:42.610Z,148
2017-06-04T03:46:30.832Z,176
2017-06-04T03:49:12.720Z,152
2017-06-04T03:50:01.163Z,140
2017-06-04T03:50:50.097Z,124
2017-06-04T03:51:40.259Z,104
2017-06-04T03:52:31.262Z,116
2017-06-04T03:53:20.840Z,120
2017-06-04T03:54:09.368Z,160
2017-06-04T03:55:01.655Z,128
2017-06-04T03:55:50.236Z,136
2017-06-04T03:56:38.869Z,152
2017-06-04T03:57:27.512Z,152
2017-06-04T03:58:15.213Z,132
2017-06-04T03:59:03.631Z,164
2017-06-04T03:59:53.426Z,152
2017-06-04T04:00:42.086Z,124
2017-06-04T04:01:30.321Z,136
2017-06-04T04:02:16.201Z,140
2017-06-04T04:03:01.130Z,116
2017-06-04T04:03:45.040Z,108
2017-06-04T04:04:31.017Z,108
2017-06-04T04:05:14.148Z,116
2017-06-04T04:05:54.631Z,104
2017-06-04T04:06:36.611Z,116
2017-06-04T04:07:29.240Z,156
2017-06-04T04:08:11.546Z,212
2017-06-04T04:08:59.681Z,244
2017-06-04T04:09:41.781Z,288
2017-06-04T04:10:22.255Z,268
2017-06-04T04:11:04.340Z,256
2017-06-04T04:11:46.811Z,300
2017-06-04T04:12:27.284Z,332
2017-06-04T04:13:08.665Z,308
2017-06-04T04:13:50.124Z,332
2017-06-04T04:14:30.568Z,320
2017-06-04T04:15:11.933Z,320
2017-06-04T04:15:55.125Z,364
2017-06-04T04:16:38.188Z,368
2017-06-04T04:17:27.032Z,484
2017-06-04T04:18:11.077Z,504
2017-06-04T04:18:55.426Z,508
2017-06-04T04:19:37.753Z,452
2017-06-04T04:22:12.870Z,624
2017-06-04T04:23:01.795Z,692
2017-06-04T04:25:26.482Z,592
2017-06-04T04:26:15.115Z,648
2017-06-04T04:27:03.595Z,604
2017-06-04T04:27:51.947Z,592
2017-06-04T04:28:40.582Z,684
2017-06-04T04:29:29.227Z,648
2017-06-04T04:30:18.154Z,652
2017-06-04T04:31:06.636Z,548
2017-06-04T04:31:55.393Z,532
2017-06-04T04:32:43.676Z,472
2017-06-04T04:33:32.352Z,492
2017-06-04T04:34:21.307Z,540
2017-06-04T04:35:09.399Z,508
2017-06-04T04:35:58.119Z,428
2017-06-04T04:36:46.812Z,444
2017-06-04T04:37:30.788Z,476
2017-06-04T04:38:11.866Z,420
2017-06-04T04:38:53.940Z,532
2017-06-04T04:39:34.344Z,496
2017-06-04T04:40:16.338Z,552
2017-06-04T04:41:01.392Z,484
2017-06-04T04:41:43.328Z,536
2017-06-04T04:42:23.797Z,544
2017-06-04T04:43:05.171Z,440
2017-06-04T04:43:48.285Z,436
2017-06-04T04:44:28.764Z,488
2017-06-04T04:45:10.059Z,500
2017-06-04T04:45:52.311Z,408
2017-06-04T04:46:32.691Z,428
2017-06-04T04:47:13.302Z,452
2017-06-04T04:47:54.939Z,532
2017-06-04T04:48:36.156Z,560
2017-06-04T04:49:17.172Z,592
2017-06-04T04:50:01.948Z,648
2017-06-04T04:50:43.183Z,660
2017-06-04T04:51:25.462Z,640
2017-06-04T04:52:06.957Z,592
2017-06-04T04:52:47.435Z,472
2017-06-04T04:53:28.561Z,512
2017-06-04T04:54:09.714Z,540
2017-06-04T04:54:50.978Z,548
2017-06-04T04:57:12.231Z,628
2017-06-04T04:58:01.474Z,588
2017-06-04T04:58:51.988Z,624
2017-06-04T04:59:40.248Z,476
2017-06-04T05:00:28.970Z,456
2017-06-04T05:01:17.526Z,656
2017-06-04T05:02:06.586Z,700
2017-06-04T05:02:54.777Z,820
2017-06-04T05:03:43.583Z,840
2017-06-04T05:04:32.471Z,776
2017-06-04T05:05:20.879Z,988
2017-06-04T05:06:09.579Z,1004
2017-06-04T05:06:58.432Z,1008
2017-06-04T05:07:46.506Z,1040
2017-06-04T05:08:36.009Z,836
2017-06-04T05:09:24.461Z,864
2017-06-04T05:10:12.844Z,848
2017-06-04T05:11:01.387Z,1056
2017-06-04T05:11:50.044Z,1088
2017-06-04T05:12:38.606Z,1100
2017-06-04T05:13:27.543Z,976
2017-06-04T05:14:15.663Z,952
2017-06-04T05:15:04.182Z,940
2017-06-04T05:15:53.230Z,988
2017-06-04T05:16:42.023Z,996
2017-06-04T05:17:30.221Z,1008
2017-06-04T05:20:10.868Z,1356
2017-06-04T05:21:00.185Z,1644
2017-06-04T05:21:48.146Z,1748
2017-06-04T05:22:37.044Z,1660
2017-06-04T05:23:25.527Z,1724
2017-06-04T05:24:13.805Z,1660
2017-06-04T05:25:02.761Z,1736
2017-06-04T05:25:51.161Z,1816
2017-06-04T05:26:40.126Z,2144
2017-06-04T05:27:29.245Z,1976
2017-06-04T05:30:22.987Z,2156
2017-06-04T05:31:11.555Z,2248
2017-06-04T05:32:00.588Z,2336
2017-06-04T05:32:49.005Z,2100
2017-06-04T05:33:37.869Z,2144
2017-06-04T05:34:26.255Z,2308
2017-06-04T05:35:15.628Z,2308
2017-06-04T05:36:03.534Z,2656
2017-06-04T05:36:52.702Z,2788
2017-06-04T05:37:41.007Z,2756
2017-06-04T05:38:29.416Z,2656
2017-06-04T05:39:17.806Z,2796
2017-06-04T05:40:06.357Z,2768
2017-06-04T05:40:54.822Z,2952
2017-06-04T05:41:43.582Z,3120
2017-06-04T05:42:32.032Z,3232
2017-06-04T05:43:20.850Z,3404
2017-06-04T05:44:09.478Z,3632
2017-06-04T05:44:58.098Z,3848
2017-06-04T05:45:46.584Z,4160
2017-06-04T05:46:35.393Z,4472
2017-06-04T05:47:23.594Z,4812
2017-06-04T05:48:12.471Z,5144
2017-06-04T05:49:00.957Z,5364
2017-06-04T05:49:42.520Z,5544
2017-06-04T05:50:22.903Z,5672
2017-06-04T05:51:04.041Z,5832
2017-06-04T05:51:44.790Z,6012
2017-06-04T05:52:25.873Z,6236
2017-06-04T05:53:06.284Z,6432
2017-06-04T05:53:46.652Z,6496
2017-06-04T05:54:28.027Z,6560
2017-06-04T05:55:10.351Z,6636
2017-06-04T05:55:50.856Z,6448
2017-06-04T05:56:31.808Z,6380
2017-06-04T05:57:14.265Z,6412
2017-06-04T05:57:54.705Z,6420
2017-06-04T05:58:36.930Z,6372
2017-06-04T05:59:18.213Z,6444
2017-06-04T05:59:59.433Z,6444
2017-06-04T06:00:39.871Z,6320
2017-06-04T06:03:21.845Z,5220
2017-06-04T06:04:10.687Z,5048
2017-06-04T06:04:59.563Z,5072
2017-06-04T06:05:47.907Z,4768
2017-06-04T06:13:35.754Z,5568
2017-06-04T06:14:25.090Z,6516
2017-06-04T06:15:13.394Z,6944
2017-06-04T06:16:02.346Z,7268
2017-06-04T06:16:51.291Z,7448
2017-06-04T06:17:40.193Z,7840
2017-06-04T06:18:29.204Z,7192
2017-06-04T06:19:17.613Z,7460
2017-06-04T06:20:05.573Z,7388
2017-06-04T06:20:48.620Z,7628
2017-06-04T06:21:29.030Z,7256
2017-06-04T06:22:09.522Z,7088
2017-06-04T06:22:49.922Z,7668
2017-06-04T06:23:30.419Z,7664
2017-06-04T06:24:10.758Z,8172
2017-06-04T06:24:51.111Z,8944
2017-06-04T06:25:32.428Z,9424
2017-06-04T06:26:12.817Z,9636
2017-06-04T06:26:53.941Z,9692
2017-06-04T06:27:34.323Z,9552
2017-06-04T06:28:15.279Z,8948
2017-06-04T06:28:55.637Z,9040
2017-06-04T06:29:37.020Z,9020
2017-06-04T06:30:20.033Z,8452
2017-06-04T06:31:00.393Z,8656
2017-06-04T06:31:40.805Z,8924
2017-06-04T06:32:22.899Z,8372
2017-06-04T06:33:03.283Z,8316
2017-06-04T06:33:44.421Z,8712
2017-06-04T06:34:24.869Z,9060
2017-06-04T06:35:05.235Z,9052
2017-06-04T06:35:45.683Z,7836
2017-06-04T06:36:26.100Z,6048
2017-06-04T06:37:07.069Z,6436
2017-06-04T06:37:48.496Z,7080
2017-06-04T06:38:29.798Z,7524
2017-06-04T06:39:11.792Z,7532
2017-06-04T06:39:52.199Z,7736
2017-06-04T06:40:33.423Z,7856
2017-06-04T06:41:13.909Z,8632
2017-06-04T06:41:54.340Z,9260
2017-06-04T06:42:34.822Z,9184
2017-06-04T06:43:15.234Z,9084
2017-06-04T06:44:00.300Z,8840
2017-06-04T06:44:41.220Z,8876
2017-06-04T06:45:21.691Z,8188
2017-06-04T06:46:02.670Z,8156
2017-06-04T06:46:43.571Z,8424
2017-06-04T06:47:25.525Z,9188
2017-06-04T06:48:05.753Z,9388
2017-06-04T06:48:46.239Z,8864
2017-06-04T06:49:26.629Z,9244
2017-06-04T06:50:07.389Z,9572
2017-06-04T06:50:47.757Z,9716
2017-06-04T06:51:28.748Z,9904
2017-06-04T06:52:09.057Z,10064
2017-06-04T06:52:49.503Z,9704
2017-06-04T06:53:29.905Z,8164
2017-06-04T06:54:10.310Z,7876
2017-06-04T06:54:50.747Z,8688
2017-06-04T06:55:31.306Z,9468
2017-06-04T06:56:13.564Z,9800
2017-06-04T06:56:53.954Z,9040
2017-06-04T06:57:37.976Z,9060
2017-06-04T06:58:17.528Z,9596
2017-06-04T06:58:57.918Z,9992
2017-06-04T06:59:39.953Z,10224
2017-06-04T07:00:20.401Z,10424
2017-06-04T07:01:00.820Z,10748
2017-06-04T07:01:41.196Z,10832
2017-06-04T07:02:22.248Z,11136
2017-06-04T07:03:02.688Z,11716
2017-06-04T07:03:43.062Z,12208
2017-06-04T07:04:23.459Z,12488
2017-06-04T07:05:03.916Z,12656
2017-06-04T07:05:44.468Z,12792
2017-06-04T07:06:24.821Z,12736
2017-06-04T07:07:05.262Z,12520
2017-06-04T07:07:45.691Z,12216
2017-06-04T07:08:26.026Z,11072
2017-06-04T07:09:06.426Z,10580
2017-06-04T07:09:46.933Z,9816
2017-06-04T07:10:28.351Z,7928
2017-06-04T07:11:08.742Z,6404
2017-06-04T07:11:49.158Z,6364
2017-06-04T07:12:30.105Z,7004
2017-06-04T07:13:10.551Z,6616
2017-06-04T07:13:50.985Z,5656
2017-06-04T07:14:31.399Z,4916
2017-06-04T07:15:11.824Z,4176
2017-06-04T07:15:52.751Z,3804
2017-06-04T07:16:33.164Z,4472
2017-06-04T07:17:13.577Z,4000
2017-06-04T07:17:53.959Z,2968
2017-06-04T07:18:34.361Z,2692
2017-06-04T07:19:14.859Z,2672
2017-06-04T07:19:55.217Z,2320
2017-06-04T07:20:35.680Z,2424
2017-06-04T07:21:16.058Z,2068
2017-06-04T07:21:57.973Z,2424
2017-06-04T07:22:38.374Z,3184
2017-06-04T07:23:18.762Z,2464
2017-06-04T07:23:59.200Z,2200
2017-06-04T07:24:39.605Z,2428
2017-06-04T07:25:20.003Z,2832
2017-06-04T07:26:00.400Z,2652
2017-06-04T07:26:40.906Z,2324
2017-06-04T07:27:21.308Z,2604
2017-06-04T07:28:01.742Z,3112
2017-06-04T07:28:42.188Z,2628
2017-06-04T07:29:22.650Z,3040
2017-06-04T07:30:03.041Z,4176
2017-06-04T07:30:43.476Z,4148
2017-06-04T07:31:24.030Z,5256
2017-06-04T07:32:04.290Z,6660
2017-06-04T07:32:44.676Z,7644
2017-06-04T07:33:25.383Z,8328
2017-06-04T07:34:05.824Z,8540
2017-06-04T07:34:46.231Z,7456
2017-06-04T07:35:26.668Z,6372
2017-06-04T07:36:07.111Z,5660
2017-06-04T07:36:47.541Z,5692
2017-06-04T07:37:27.940Z,6052
2017-06-04T07:38:08.358Z,5768
2017-06-04T07:38:48.739Z,5864
2017-06-04T07:39:29.168Z,6232
2017-06-04T07:40:09.568Z,6548
2017-06-04T07:40:50.604Z,6300
2017-06-04T07:41:31.060Z,4992
2017-06-04T07:42:11.428Z,3840
2017-06-04T07:42:51.865Z,3428
2017-06-04T07:43:32.254Z,3692
2017-06-04T07:44:12.635Z,4044
2017-06-04T07:44:53.055Z,4640
2017-06-04T07:45:33.476Z,5460
2017-06-04T07:46:13.922Z,7104
2017-06-04T07:46:54.298Z,9316
2017-06-04T07:47:35.203Z,10372
2017-06-04T07:48:15.612Z,9468
2017-06-04T07:48:56.759Z,8244
2017-06-04T07:49:37.212Z,8176
2017-06-04T07:50:17.811Z,8664
2017-06-04T07:50:58.220Z,7824
2017-06-04T07:51:39.595Z,6912
2017-06-04T07:52:19.870Z,7236
2017-06-04T07:53:00.289Z,8936
2017-06-04T07:53:40.689Z,10216
2017-06-04T07:54:21.103Z,10680
2017-06-04T07:55:01.543Z,11280
2017-06-04T07:55:41.977Z,12176
2017-06-04T07:56:22.388Z,12188
2017-06-04T07:57:02.823Z,10544
2017-06-04T07:57:43.217Z,10068
2017-06-04T07:58:23.656Z,12344
2017-06-04T07:59:04.015Z,14660
2017-06-04T07:59:44.456Z,15496
2017-06-04T08:00:24.892Z,15864
2017-06-04T08:01:05.315Z,13452
2017-06-04T08:01:45.750Z,14104
2017-06-04T08:02:26.111Z,14712
2017-06-04T08:03:06.593Z,15764
2017-06-04T08:03:46.970Z,13328
2017-06-04T08:04:27.403Z,11952
2017-06-04T08:05:07.786Z,15748
2017-06-04T08:05:48.213Z,17952
2017-06-04T08:06:29.199Z,17824
2017-06-04T08:07:09.631Z,16488
2017-06-04T08:07:50.069Z,13928
2017-06-04T08:08:30.642Z,12296
2017-06-04T08:09:11.133Z,11928
2017-06-04T08:09:51.638Z,10652
2017-06-04T08:13:30.350Z,8112
2017-06-04T08:14:10.836Z,9844
2017-06-04T08:14:51.901Z,12680
2017-06-04T08:15:32.364Z,14240
2017-06-04T08:16:13.029Z,14196
2017-06-04T08:16:53.441Z,12872
2017-06-04T08:17:33.890Z,10552
2017-06-04T08:18:14.282Z,10040
2017-06-04T08:18:54.694Z,11672
2017-06-04T08:19:35.819Z,13044
2017-06-04T08:20:16.227Z,13076
2017-06-04T08:20:56.635Z,13336
2017-06-04T08:23:29.494Z,13472
2017-06-04T08:24:13.829Z,13424
2017-06-04T08:24:54.386Z,10196
2017-06-04T08:25:34.802Z,8736
2017-06-04T08:26:15.235Z,10156
2017-06-04T08:26:55.638Z,13856
2017-06-04T08:27:36.085Z,17120
2017-06-04T08:28:16.513Z,19552
2017-06-04T08:28:57.036Z,21824
2017-06-04T08:29:37.436Z,21152
2017-06-04T08:30:17.892Z,18848
2017-06-04T08:30:58.351Z,19872
2017-06-04T08:31:38.822Z,19360
2017-06-04T08:32:19.206Z,19104
2017-06-04T08:32:59.693Z,22976
2017-06-04T08:33:40.122Z,38880
2017-06-04T08:34:20.520Z,42560
2017-06-04T08:35:01.824Z,38240
2017-06-04T08:37:36.255Z,28096
2017-06-04T08:39:50.679Z,32640
2017-06-04T08:40:31.060Z,32576
2017-06-04T08:41:11.507Z,36704
2017-06-04T08:41:51.968Z,35520
2017-06-04T08:42:32.342Z,42176
2017-06-04T08:43:13.793Z,36192
2017-06-04T08:43:54.040Z,35904
2017-06-04T08:44:34.752Z,39488
2017-06-04T08:45:15.183Z,39744
2017-06-04T08:45:57.328Z,33856
2017-06-04T08:46:37.875Z,33888
2017-06-04T08:47:18.323Z,58944
2017-06-04T08:47:58.707Z,35936
2017-06-04T08:48:39.092Z,34784
2017-06-04T08:49:20.739Z,38400
2017-06-04T08:50:02.688Z,39552
2017-06-04T08:50:43.620Z,37152
2017-06-04T08:51:24.143Z,43392
2017-06-04T08:52:04.683Z,43168
2017-06-04T08:52:46.947Z,42688
2017-06-04T08:53:27.285Z,48256
2017-06-04T08:54:07.924Z,45536
2017-06-04T08:54:48.324Z,41600
2017-06-04T08:55:28.812Z,31488
2017-06-04T08:56:10.149Z,23456
2017-06-04T08:56:50.643Z,18784
2017-06-04T08:57:31.053Z,15712
2017-06-04T09:00:06.367Z,22752
2017-06-04T09:00:55.368Z,24160
2017-06-04T09:01:43.888Z,25792
2017-06-04T09:02:32.151Z,26880
2017-06-04T09:03:22.397Z,26912
2017-06-04T09:04:10.372Z,26592
2017-06-04T09:04:57.285Z,26400
2017-06-04T09:05:38.741Z,27360
2017-06-04T09:06:19.893Z,28640
2017-06-04T09:07:03.869Z,30304
2017-06-04T09:09:27.182Z,41792
2017-06-04T09:10:15.396Z,49088
2017-06-04T09:11:05.582Z,62656
2017-06-04T09:18:30.506Z,46208
2017-06-04T09:19:10.622Z,42848
2017-06-04T09:19:51.015Z,44096
2017-06-04T09:20:31.463Z,49952
2017-06-04T09:21:11.888Z,73472
2017-06-04T09:21:53.106Z,56544
2017-06-04T09:25:59.559Z,52288
2017-06-04T09:26:39.558Z,48160
2017-06-04T09:27:22.761Z,43712
2017-06-04T09:28:03.207Z,52448
2017-06-04T09:28:43.640Z,47968
2017-06-04T09:29:24.047Z,40224
2017-06-04T09:30:05.707Z,42304
2017-06-04T09:30:46.526Z,37888
2017-06-04T09:31:27.624Z,43072
2017-06-04T09:32:08.729Z,46272
2017-06-04T09:32:49.690Z,51136
2017-06-04T09:33:30.884Z,37344
2017-06-04T09:34:12.339Z,44480
2017-06-04T09:34:52.836Z,40384
2017-06-04T09:35:33.200Z,30080
2017-06-04T09:36:13.631Z,35744
2017-06-04T09:36:55.636Z,44160
2017-06-04T09:37:36.073Z,37408
2017-06-04T09:38:17.099Z,44416
2017-06-04T09:38:57.954Z,27808
2017-06-04T09:39:39.659Z,32448
2017-06-04T09:40:20.099Z,44416
2017-06-04T09:41:00.582Z,71840
2017-06-04T09:41:40.944Z,54624
2017-06-04T09:42:21.523Z,52000
2017-06-04T09:43:02.704Z,64992
2017-06-04T09:43:43.546Z,56736
2017-06-04T09:44:24.816Z,36736
2017-06-04T09:45:06.678Z,38496
2017-06-04T09:45:47.816Z,32704
2017-06-04T09:46:28.158Z,25888
2017-06-04T09:47:09.063Z,20640
2017-06-04T09:49:17.302Z,13728
2017-06-04T09:49:58.203Z,12940
2017-06-04T09:50:38.649Z,12172
2017-06-04T09:51:19.051Z,11608
2017-06-04T09:51:59.472Z,11020
2017-06-04T09:52:39.913Z,10172
2017-06-04T09:53:20.321Z,9740
2017-06-04T09:54:00.856Z,9384
2017-06-04T09:54:41.253Z,8896
2017-06-04T09:55:21.725Z,8352
2017-06-04T09:56:02.206Z,8056
2017-06-04T09:56:42.809Z,8020
2017-06-04T09:57:23.235Z,7940
2017-06-04T09:58:03.914Z,7708
2017-06-04T09:58:46.121Z,7312
2017-06-04T09:59:26.853Z,6592
2017-06-04T10:00:07.582Z,5868
2017-06-04T10:00:49.453Z,5244
2017-06-04T10:01:29.866Z,5000
2017-06-04T10:02:10.532Z,4888
2017-06-04T10:02:51.013Z,4772
2017-06-04T10:03:32.942Z,5116
2017-06-04T10:04:13.593Z,5568
2017-06-04T10:04:54.132Z,5856
2017-06-04T10:05:34.689Z,6756
2017-06-04T10:06:15.274Z,8240
2017-06-04T10:06:57.018Z,9812
2017-06-04T10:07:37.489Z,10444
2017-06-04T10:08:17.851Z,10884
2017-06-04T10:08:58.292Z,11472
2017-06-04T10:09:38.751Z,11340
2017-06-04T10:10:19.086Z,11652
2017-06-04T10:10:59.660Z,12672
2017-06-04T10:11:40.062Z,14036
2017-06-04T10:12:20.490Z,16800
2017-06-04T10:13:00.953Z,20736
2017-06-04T10:13:41.455Z,24512
2017-06-04T10:14:22.425Z,28416
2017-06-04T10:15:03.732Z,28608
2017-06-04T10:15:44.202Z,29856
2017-06-04T10:16:24.863Z,32000
2017-06-04T10:17:05.239Z,33792
2017-06-04T10:17:45.649Z,36576
2017-06-04T10:18:26.907Z,38688
2017-06-04T10:19:06.602Z,40512
2017-06-04T10:19:46.946Z,43264
2017-06-04T10:20:27.390Z,46400
2017-06-04T10:21:11.033Z,43232
2017-06-04T10:21:53.133Z,39232
2017-06-04T10:22:36.108Z,38048
2017-06-04T10:23:17.681Z,40800
2017-06-04T10:23:59.136Z,37280
2017-06-04T10:24:40.476Z,29248
2017-06-04T10:25:20.933Z,24800
2017-06-04T10:26:01.321Z,21056
2017-06-04T10:28:37.160Z,15392
2017-06-04T10:29:25.140Z,13644
2017-06-04T10:30:14.904Z,12988
2017-06-04T10:31:06.741Z,13364
2017-06-04T10:31:59.247Z,13568
2017-06-04T10:32:47.385Z,13236
2017-06-04T10:33:37.701Z,12868
2017-06-04T10:40:10.629Z,20128
2017-06-04T10:41:00.093Z,20480
2017-06-04T10:41:48.962Z,19808
2017-06-04T10:42:40.031Z,18784
2017-06-04T10:43:28.352Z,17856
2017-06-04T10:44:17.142Z,16928
2017-06-04T10:45:07.040Z,15580
2017-06-04T10:45:56.370Z,14796
2017-06-04T10:46:45.341Z,14896
2017-06-04T10:47:34.025Z,16120
2017-06-04T10:48:23.028Z,18400
2017-06-04T10:49:11.747Z,21184
2017-06-04T10:50:01.044Z,24672
2017-06-04T10:50:48.946Z,28928
2017-06-04T10:51:38.664Z,45504
2017-06-04T10:52:27.613Z,95712
2017-06-04T10:53:16.065Z,41408
2017-06-04T10:54:04.655Z,39200
2017-06-04T10:54:53.835Z,64704
2017-06-04T10:55:43.063Z,128768
2017-06-04T10:56:33.215Z,119904
2017-06-04T10:59:42.433Z,112384
2017-06-04T11:02:33.097Z,110912
2017-06-04T11:04:36.909Z,111520
2017-06-04T11:05:29.879Z,112128
2017-06-04T11:06:28.507Z,108640
2017-06-04T11:12:25.575Z,124992
2017-06-04T11:13:49.433Z,46592